createdAt,value
2023-01-30T00:00:53.876Z,89.10
2023-01-30T00:03:17.097Z,89.20
2023-01-30T00:05:40.300Z,89.10
2023-01-30T00:08:03.647Z,89.20
2023-01-30T00:10:26.963Z,89.20
2023-01-30T00:12:50.251Z,89.10
2023-01-30T00:15:13.542Z,89.20
2023-01-30T00:17:38.249Z,89.20
2023-01-30T00:20:01.581Z,89.20
2023-01-30T00:22:25.112Z,89.30
2023-01-30T00:24:48.677Z,89.20
2023-01-30T00:27:12.079Z,89.30
2023-01-30T00:29:35.423Z,89.20
2023-01-30T00:31:58.995Z,89.20
2023-01-30T00:34:23.682Z,89.20
2023-01-30T00:36:53.246Z,89.20
2023-01-30T00:39:22.927Z,89.30
2023-01-30T00:42:15.352Z,89.30
2023-01-30T00:44:55.849Z,89.30
2023-01-30T00:47:19.695Z,89.30
2023-01-30T00:49:44.346Z,89.30
2023-01-30T00:52:07.755Z,89.30
2023-01-30T00:54:31.258Z,89.40
2023-01-30T00:56:55.090Z,89.60
2023-01-30T00:59:21.669Z,89.50
2023-01-30T01:01:45.232Z,89.70
2023-01-30T01:04:10.516Z,89.70
2023-01-30T01:06:35.334Z,89.90
2023-01-30T01:08:58.554Z,89.80
2023-01-30T01:11:25.251Z,89.70
2023-01-30T01:13:48.509Z,89.70
2023-01-30T01:16:11.819Z,89.70
2023-01-30T01:18:35.507Z,89.50
2023-01-30T01:20:58.838Z,89.60
2023-01-30T01:23:25.087Z,89.50
2023-01-30T01:25:48.477Z,89.30
2023-01-30T01:28:11.789Z,89.20
2023-01-30T01:30:35.026Z,89.20
2023-01-30T01:32:58.654Z,89.10
2023-01-30T01:35:21.964Z,89.20
2023-01-30T01:37:45.276Z,89.20
2023-01-30T01:40:37.749Z,89.10
2023-01-30T01:43:04.084Z,89.20
2023-01-30T01:45:28.439Z,89.20
2023-01-30T01:48:01.755Z,89.20
2023-01-30T01:50:31.483Z,89.20
2023-01-30T01:53:00.254Z,89.00
2023-01-30T01:55:26.300Z,89.00
2023-01-30T01:57:54.974Z,89.10
2023-01-30T02:00:23.584Z,89.20
2023-01-30T02:02:53.224Z,89.20
2023-01-30T02:05:19.017Z,89.20
2023-01-30T02:07:49.234Z,89.10
2023-01-30T02:10:20.869Z,89.10
2023-01-30T02:12:46.958Z,89.10
2023-01-30T02:15:11.528Z,89.30
2023-01-30T02:17:36.053Z,89.30
2023-01-30T02:20:06.567Z,89.30
2023-01-30T02:23:27.775Z,89.40
2023-01-30T02:26:38.937Z,89.60
2023-01-30T02:29:47.305Z,89.50
2023-01-30T02:32:21.773Z,89.70
2023-01-30T02:34:57.128Z,89.80
2023-01-30T02:37:36.730Z,89.80
2023-01-30T02:40:25.800Z,89.80
2023-01-30T02:43:01.521Z,89.80
2023-01-30T02:45:32.654Z,89.90
2023-01-30T02:48:03.733Z,90.00
2023-01-30T02:50:31.440Z,90.00
2023-01-30T02:52:55.373Z,90.00
2023-01-30T02:55:25.203Z,90.00
2023-01-30T02:57:48.669Z,90.00
2023-01-30T03:00:14.116Z,90.10
2023-01-30T03:03:07.010Z,90.20
2023-01-30T03:05:51.620Z,90.10
2023-01-30T03:08:26.917Z,90.20
2023-01-30T03:10:59.512Z,90.20
2023-01-30T03:13:35.585Z,90.30
2023-01-30T03:16:05.335Z,90.30
2023-01-30T03:18:28.866Z,90.30
2023-01-30T03:20:53.670Z,90.20
2023-01-30T03:23:17.000Z,90.40
2023-01-30T03:25:44.990Z,90.50
2023-01-30T03:28:09.619Z,90.50
2023-01-30T03:30:32.918Z,90.60
2023-01-30T03:33:03.113Z,90.60
2023-01-30T03:35:26.876Z,90.60
2023-01-30T03:37:51.740Z,90.70
2023-01-30T03:40:17.569Z,90.80
2023-01-30T03:42:41.957Z,90.70
2023-01-30T03:45:07.706Z,90.80
2023-01-30T03:47:30.930Z,91.00
2023-01-30T03:49:55.210Z,91.00
2023-01-30T03:52:18.540Z,91.00
2023-01-30T03:54:43.334Z,90.80
2023-01-30T03:57:06.739Z,91.00
2023-01-30T03:59:30.460Z,91.10
2023-01-30T04:02:01.071Z,91.10
2023-01-30T04:04:24.704Z,91.10
2023-01-30T04:06:47.997Z,91.40
2023-01-30T04:09:11.673Z,91.60
2023-01-30T04:11:41.506Z,91.80
2023-01-30T04:14:05.007Z,91.80
2023-01-30T04:16:37.904Z,92.00
2023-01-30T04:19:30.024Z,92.20
2023-01-30T04:21:53.655Z,92.30
2023-01-30T04:24:17.920Z,92.30
2023-01-30T04:26:42.770Z,92.10
2023-01-30T04:29:06.777Z,92.10
2023-01-30T04:31:30.662Z,92.30
2023-01-30T04:33:59.083Z,92.50
2023-01-30T04:36:22.305Z,92.80
2023-01-30T04:38:46.217Z,92.90
2023-01-30T04:41:09.634Z,93.20
2023-01-30T04:43:37.818Z,93.30
2023-01-30T04:46:07.097Z,93.30
2023-01-30T04:48:31.043Z,93.40
2023-01-30T04:50:58.003Z,93.50
2023-01-30T04:53:22.263Z,93.40
2023-01-30T04:55:46.207Z,93.50
2023-01-30T04:58:09.771Z,93.50
2023-01-30T05:00:34.783Z,93.60
2023-01-30T05:02:58.623Z,93.50
2023-01-30T05:05:21.985Z,93.60
2023-01-30T05:07:45.209Z,93.70
2023-01-30T05:10:10.110Z,93.90
2023-01-30T05:12:33.524Z,93.90
2023-01-30T05:14:56.713Z,93.60
2023-01-30T05:17:21.663Z,93.70
2023-01-30T05:19:44.890Z,93.70
2023-01-30T05:22:08.103Z,93.50
2023-01-30T05:24:31.372Z,93.40
2023-01-30T05:26:54.634Z,93.50
2023-01-30T05:29:17.919Z,93.20
2023-01-30T05:31:41.207Z,93.50
2023-01-30T05:34:05.885Z,93.60
2023-01-30T05:36:29.167Z,93.60
2023-01-30T05:38:52.518Z,93.60
2023-01-30T05:41:18.163Z,93.40
2023-01-30T05:43:41.707Z,93.30
2023-01-30T05:46:07.467Z,93.70
2023-01-30T05:48:31.257Z,93.70
2023-01-30T05:50:57.731Z,93.90
2023-01-30T05:53:21.272Z,94.10
2023-01-30T05:55:44.808Z,94.10
2023-01-30T05:58:08.108Z,94.10
2023-01-30T06:00:31.420Z,94.00
2023-01-30T06:02:54.787Z,94.20
2023-01-30T06:05:18.522Z,94.00
2023-01-30T06:07:43.452Z,94.10
2023-01-30T06:10:07.644Z,93.90
2023-01-30T06:12:31.358Z,94.10
2023-01-30T06:14:54.569Z,94.20
2023-01-30T06:17:17.905Z,94.40
2023-01-30T06:19:41.189Z,94.40
2023-01-30T06:22:04.548Z,94.50
2023-01-30T06:24:29.302Z,94.60
2023-01-30T06:26:52.675Z,94.50
2023-01-30T06:29:16.139Z,94.50
2023-01-30T06:31:39.410Z,94.50
2023-01-30T06:34:02.871Z,94.50
2023-01-30T06:36:26.359Z,94.20
2023-01-30T06:38:49.727Z,94.00
2023-01-30T06:41:14.323Z,94.00
2023-01-30T06:43:37.840Z,94.10
2023-01-30T06:46:01.297Z,94.10
2023-01-30T06:48:24.710Z,93.80
2023-01-30T06:50:48.981Z,93.80
2023-01-30T06:53:12.534Z,93.90
2023-01-30T06:55:37.141Z,93.80
2023-01-30T06:58:06.785Z,93.80
2023-01-30T07:00:30.521Z,93.80
2023-01-30T07:02:53.800Z,93.70
2023-01-30T07:05:17.488Z,93.70
2023-01-30T07:07:41.219Z,93.50
2023-01-30T07:10:08.538Z,93.20
2023-01-30T07:12:32.933Z,93.20
2023-01-30T07:14:57.766Z,93.20
2023-01-30T07:17:21.285Z,93.10
2023-01-30T07:19:44.762Z,93.10
2023-01-30T07:22:08.177Z,93.30
2023-01-30T07:24:31.476Z,93.30
2023-01-30T07:26:54.785Z,93.20
2023-01-30T07:29:18.206Z,93.30
2023-01-30T07:31:43.053Z,93.00
2023-01-30T07:34:06.371Z,92.80
2023-01-30T07:36:29.704Z,92.90
2023-01-30T07:38:52.945Z,92.70
2023-01-30T07:41:16.140Z,92.50
2023-01-30T07:43:39.424Z,92.40
2023-01-30T07:46:03.974Z,92.40
2023-01-30T07:48:28.880Z,91.50
2023-01-30T07:50:52.686Z,91.20
2023-01-30T07:53:18.683Z,91.70
2023-01-30T07:55:42.840Z,91.20
2023-01-30T07:58:06.786Z,91.30
2023-01-30T08:00:30.338Z,90.40
2023-01-30T08:02:53.611Z,90.70
2023-01-30T08:05:18.532Z,91.20
2023-01-30T08:07:41.902Z,91.10
2023-01-30T08:10:06.055Z,91.00
2023-01-30T08:12:29.493Z,91.20
2023-01-30T08:14:52.810Z,91.50
2023-01-30T08:17:16.046Z,91.80
2023-01-30T08:19:39.389Z,91.90
2023-01-30T08:22:04.646Z,91.80
2023-01-30T08:24:27.964Z,91.80
2023-01-30T08:26:51.328Z,91.80
2023-01-30T08:29:14.725Z,91.40
2023-01-30T08:31:38.156Z,91.20
2023-01-30T08:34:01.410Z,91.10
2023-01-30T08:36:24.792Z,90.90
2023-01-30T08:38:49.376Z,90.50
2023-01-30T08:41:12.787Z,90.40
2023-01-30T08:43:36.407Z,90.50
2023-01-30T08:45:59.649Z,90.60
2023-01-30T08:48:23.305Z,90.00
2023-01-30T08:50:46.604Z,88.90
2023-01-30T08:53:10.358Z,89.10
2023-01-30T08:55:35.158Z,88.70
2023-01-30T08:57:58.912Z,87.80
2023-01-30T09:00:23.440Z,87.40
2023-01-30T09:02:46.854Z,87.20
2023-01-30T09:05:11.787Z,87.10
2023-01-30T09:07:35.719Z,86.10
2023-01-30T09:09:58.985Z,86.20
2023-01-30T09:12:23.916Z,85.90
2023-01-30T09:14:47.232Z,86.40
2023-01-30T09:17:10.548Z,86.50
2023-01-30T09:19:35.905Z,86.00
2023-01-30T09:21:59.282Z,85.70
2023-01-30T09:24:26.308Z,86.10
2023-01-30T09:26:49.702Z,84.40
2023-01-30T09:29:14.622Z,83.80
2023-01-30T09:31:38.191Z,83.70
2023-01-30T09:34:01.568Z,82.60
2023-01-30T09:36:24.919Z,83.40
2023-01-30T09:38:48.149Z,82.30
2023-01-30T09:41:54.582Z,82.50
2023-01-30T09:45:24.396Z,82.10
2023-01-30T09:47:56.726Z,82.10
2023-01-30T09:50:48.789Z,81.40
2023-01-30T09:53:20.054Z,80.80
2023-01-30T09:55:44.213Z,81.20
2023-01-30T09:58:16.974Z,81.00
2023-01-30T10:00:42.767Z,80.40
2023-01-30T10:03:12.374Z,80.60
2023-01-30T10:05:43.946Z,80.00
2023-01-30T10:08:31.753Z,79.70
2023-01-30T10:11:09.925Z,79.00
2023-01-30T10:13:55.898Z,78.70
2023-01-30T10:16:26.377Z,78.70
2023-01-30T10:19:34.711Z,79.10
2023-01-30T10:22:03.905Z,78.60
2023-01-30T10:24:42.053Z,78.10
2023-01-30T10:27:11.855Z,77.40
2023-01-30T10:29:39.704Z,78.00
2023-01-30T10:32:11.800Z,78.50
2023-01-30T10:34:40.276Z,77.30
2023-01-30T10:37:09.895Z,77.50
2023-01-30T10:39:54.952Z,77.60
2023-01-30T10:42:26.521Z,77.30
2023-01-30T10:44:50.036Z,77.70
2023-01-30T10:47:47.104Z,77.20
2023-01-30T10:50:18.038Z,76.50
2023-01-30T10:52:54.081Z,77.30
2023-01-30T10:55:37.181Z,76.20
2023-01-30T10:58:11.958Z,75.80
2023-01-30T11:00:41.331Z,76.00
2023-01-30T11:03:27.503Z,76.00
2023-01-30T11:05:53.782Z,75.80
2023-01-30T11:08:25.781Z,75.30
2023-01-30T11:10:49.394Z,75.20
2023-01-30T11:13:18.822Z,75.10
2023-01-30T11:15:43.113Z,75.60
2023-01-30T11:19:05.227Z,74.30
2023-01-30T11:21:04.449Z,74.70
2023-01-30T11:23:33.858Z,74.40
2023-01-30T11:26:10.975Z,73.90
2023-01-30T11:28:42.464Z,74.30
2023-01-30T11:31:07.856Z,74.50
2023-01-30T11:33:35.717Z,74.20
2023-01-30T11:36:04.510Z,73.70
2023-01-30T11:38:31.990Z,73.20
2023-01-30T11:41:07.389Z,72.70
2023-01-30T11:43:31.065Z,72.90
2023-01-30T11:45:54.384Z,73.20
2023-01-30T11:49:00.587Z,73.10
2023-01-30T11:51:08.347Z,73.50
2023-01-30T11:53:35.899Z,72.90
2023-01-30T11:56:08.516Z,73.10
2023-01-30T11:58:34.601Z,72.10
2023-01-30T12:00:59.640Z,72.50
2023-01-30T12:03:25.638Z,72.20
2023-01-30T12:05:49.260Z,71.90
2023-01-30T12:08:41.124Z,71.90
2023-01-30T12:11:07.542Z,71.90
2023-01-30T12:13:37.203Z,71.30
2023-01-30T12:16:19.186Z,71.80
2023-01-30T12:18:57.076Z,71.30
2023-01-30T12:21:36.055Z,71.40
2023-01-30T12:24:10.621Z,70.90
2023-01-30T12:26:38.810Z,71.90
2023-01-30T12:29:15.199Z,70.50
2023-01-30T12:31:46.254Z,70.30
2023-01-30T12:34:11.173Z,69.70
2023-01-30T12:36:46.848Z,69.50
2023-01-30T12:39:37.255Z,70.80
2023-01-30T12:42:25.791Z,72.60
2023-01-30T12:45:18.019Z,70.40
2023-01-30T12:48:04.254Z,70.50
2023-01-30T12:50:41.120Z,71.10
2023-01-30T12:53:28.522Z,71.30
2023-01-30T12:56:12.192Z,70.60
2023-01-30T12:58:43.947Z,70.40
2023-01-30T13:01:25.141Z,71.60
2023-01-30T13:03:58.763Z,71.10
2023-01-30T13:06:44.864Z,70.10
2023-01-30T13:09:27.523Z,70.30
2023-01-30T13:12:00.929Z,70.40
2023-01-30T13:14:33.333Z,70.30
2023-01-30T13:17:14.344Z,70.60
2023-01-30T13:19:46.421Z,69.90
2023-01-30T13:22:18.899Z,68.90
2023-01-30T13:24:54.403Z,69.50
2023-01-30T13:27:22.656Z,68.60
2023-01-30T13:29:47.666Z,68.20
2023-01-30T13:32:18.697Z,68.40
2023-01-30T13:34:47.902Z,67.80
2023-01-30T13:37:14.833Z,68.10
2023-01-30T13:39:45.262Z,68.20
2023-01-30T13:42:23.414Z,69.10
2023-01-30T13:44:49.048Z,68.90
2023-01-30T13:47:25.352Z,68.70
2023-01-30T13:50:00.359Z,68.60
2023-01-30T13:52:32.806Z,68.50
2023-01-30T13:55:04.947Z,68.70
2023-01-30T13:57:45.937Z,68.70
2023-01-30T14:00:24.062Z,69.90
2023-01-30T14:03:17.866Z,69.60
2023-01-30T14:06:27.791Z,69.90
2023-01-30T14:08:59.152Z,69.10
2023-01-30T14:11:39.465Z,69.20
2023-01-30T14:14:21.098Z,69.10
2023-01-30T14:16:47.237Z,70.10
2023-01-30T14:19:36.237Z,70.60
2023-01-30T14:22:01.957Z,71.00
2023-01-30T14:24:26.160Z,71.90
2023-01-30T14:27:24.104Z,71.30
2023-01-30T14:29:56.735Z,71.50
2023-01-30T14:32:55.244Z,72.00
2023-01-30T14:35:30.451Z,71.50
2023-01-30T14:38:12.689Z,71.20
2023-01-30T14:41:05.701Z,70.60
2023-01-30T14:43:53.356Z,70.10
2023-01-30T14:46:55.058Z,69.50
2023-01-30T14:49:44.601Z,70.00
2023-01-30T14:52:33.021Z,69.70
2023-01-30T14:54:56.459Z,70.10
2023-01-30T14:57:27.647Z,70.20
2023-01-30T15:00:13.442Z,70.80
2023-01-30T15:02:44.645Z,71.00
2023-01-30T15:05:12.258Z,71.80
2023-01-30T15:07:43.081Z,71.90
2023-01-30T15:10:18.009Z,72.30
2023-01-30T15:13:18.316Z,72.40
2023-01-30T15:15:50.075Z,72.60
2023-01-30T15:18:41.715Z,72.60
2023-01-30T15:21:37.174Z,72.50
2023-01-30T15:24:37.596Z,72.60
2023-01-30T15:27:10.611Z,72.30
2023-01-30T15:30:00.271Z,72.80
2023-01-30T15:32:26.313Z,72.30
2023-01-30T15:34:58.398Z,72.90
2023-01-30T15:37:33.407Z,73.50
2023-01-30T15:40:19.076Z,73.60
2023-01-30T15:42:45.758Z,73.80
2023-01-30T15:45:14.928Z,74.00
2023-01-30T15:48:16.675Z,74.60
2023-01-30T15:50:41.501Z,74.90
2023-01-30T15:53:06.743Z,74.80
2023-01-30T15:55:34.065Z,74.80
2023-01-30T15:58:02.487Z,74.80
2023-01-30T16:00:31.307Z,74.80
2023-01-30T16:02:55.595Z,75.10
2023-01-30T16:05:25.046Z,75.20
2023-01-30T16:07:52.839Z,75.30
2023-01-30T16:10:19.407Z,75.70
2023-01-30T16:12:42.970Z,75.50
2023-01-30T16:15:30.088Z,75.80
2023-01-30T16:18:02.706Z,75.60
2023-01-30T16:20:27.152Z,76.30
2023-01-30T16:22:51.870Z,75.90
2023-01-30T16:25:23.029Z,75.80
2023-01-30T16:27:51.049Z,75.60
2023-01-30T16:30:15.004Z,75.40
2023-01-30T16:32:39.668Z,75.30
2023-01-30T16:35:30.782Z,75.10
2023-01-30T16:37:57.520Z,74.90
2023-01-30T16:40:23.647Z,75.40
2023-01-30T16:42:57.116Z,75.00
2023-01-30T16:46:14.299Z,75.10
2023-01-30T16:48:37.888Z,75.10
2023-01-30T16:51:22.052Z,75.10
2023-01-30T16:54:00.800Z,75.30
2023-01-30T16:56:24.304Z,75.70
2023-01-30T16:58:53.108Z,75.50
2023-01-30T17:01:16.677Z,75.40
2023-01-30T17:03:43.573Z,75.40
2023-01-30T17:06:12.678Z,75.70
2023-01-30T17:08:53.902Z,75.70
2023-01-30T17:11:32.792Z,75.80
2023-01-30T17:14:20.393Z,76.10
2023-01-30T17:16:46.122Z,76.20
2023-01-30T17:19:09.360Z,76.60
2023-01-30T17:21:43.423Z,76.40
2023-01-30T17:24:08.744Z,76.40
2023-01-30T17:26:32.480Z,76.90
2023-01-30T17:28:55.735Z,76.60
2023-01-30T17:31:20.369Z,76.70
2023-01-30T17:33:44.224Z,76.90
2023-01-30T17:36:23.780Z,77.00
2023-01-30T17:38:48.112Z,77.00
2023-01-30T17:41:21.720Z,76.90
2023-01-30T17:43:45.292Z,77.50
2023-01-30T17:46:10.596Z,77.30
2023-01-30T17:48:33.893Z,77.40
2023-01-30T17:50:57.262Z,77.80
2023-01-30T17:53:20.598Z,77.70
2023-01-30T17:55:43.930Z,78.10
2023-01-30T17:58:08.583Z,77.90
2023-01-30T18:00:31.848Z,77.60
2023-01-30T18:02:55.157Z,78.10
2023-01-30T18:05:18.484Z,78.10
2023-01-30T18:07:42.459Z,78.20
2023-01-30T18:10:06.945Z,78.50
2023-01-30T18:12:30.412Z,78.60
2023-01-30T18:14:54.995Z,78.80
2023-01-30T18:17:19.021Z,79.10
2023-01-30T18:19:42.419Z,78.90
2023-01-30T18:22:06.556Z,79.00
2023-01-30T18:24:29.800Z,78.90
2023-01-30T18:26:53.230Z,79.10
2023-01-30T18:29:16.619Z,79.40
2023-01-30T18:31:42.091Z,79.90
2023-01-30T18:34:05.580Z,80.00
2023-01-30T18:36:29.047Z,79.90
2023-01-30T18:38:53.623Z,80.20
2023-01-30T18:41:20.596Z,80.30
2023-01-30T18:43:45.201Z,80.50
2023-01-30T18:46:10.870Z,80.60
2023-01-30T18:48:36.097Z,80.60
2023-01-30T18:51:07.004Z,80.50
2023-01-30T18:53:31.211Z,80.60
2023-01-30T18:55:54.645Z,80.90
2023-01-30T18:58:18.027Z,80.90
2023-01-30T19:00:41.458Z,80.90
2023-01-30T19:03:05.184Z,81.10
2023-01-30T19:05:30.002Z,81.30
2023-01-30T19:07:53.345Z,81.40
2023-01-30T19:10:20.379Z,81.40
2023-01-30T19:13:03.160Z,81.50
2023-01-30T19:15:26.556Z,81.60
2023-01-30T19:17:49.841Z,81.80
2023-01-30T19:20:13.986Z,82.30
2023-01-30T19:22:38.699Z,82.20
2023-01-30T19:25:02.047Z,82.50
2023-01-30T19:27:25.994Z,82.90
2023-01-30T19:29:50.238Z,83.10
2023-01-30T19:32:13.768Z,83.30
2023-01-30T19:34:37.300Z,83.20
2023-01-30T19:37:01.273Z,83.50
2023-01-30T19:39:26.163Z,83.60
2023-01-30T19:41:49.408Z,83.60
2023-01-30T19:44:13.728Z,83.70
2023-01-30T19:46:37.541Z,84.00
2023-01-30T19:49:03.229Z,84.20
2023-01-30T19:51:29.267Z,84.50
2023-01-30T19:53:54.714Z,84.40
2023-01-30T19:56:21.779Z,84.60
2023-01-30T19:58:45.159Z,84.60
2023-01-30T20:01:10.613Z,84.50
2023-01-30T20:03:33.936Z,85.10
2023-01-30T20:06:09.585Z,84.80
2023-01-30T20:08:34.952Z,84.80
2023-01-30T20:11:03.265Z,84.60
2023-01-30T20:13:27.878Z,84.80
2023-01-30T20:15:51.283Z,84.40
2023-01-30T20:18:14.573Z,84.50
2023-01-30T20:20:37.932Z,84.50
2023-01-30T20:23:01.688Z,84.40
2023-01-30T20:25:25.008Z,84.30
2023-01-30T20:27:48.469Z,84.30
2023-01-30T20:30:15.430Z,84.10
2023-01-30T20:32:40.394Z,84.00
2023-01-30T20:35:03.626Z,83.90
2023-01-30T20:37:27.878Z,84.20
2023-01-30T20:39:51.392Z,84.30
2023-01-30T20:42:15.791Z,84.10
2023-01-30T20:44:39.784Z,84.30
2023-01-30T20:47:05.053Z,84.70
2023-01-30T20:49:28.525Z,84.90
2023-01-30T20:51:54.294Z,85.30
2023-01-30T20:54:20.667Z,85.10
2023-01-30T20:56:46.742Z,85.10
2023-01-30T20:59:12.567Z,85.50
2023-01-30T21:01:37.371Z,85.20
2023-01-30T21:04:08.174Z,85.20
2023-01-30T21:06:41.222Z,85.20
2023-01-30T21:09:11.814Z,85.30
2023-01-30T21:11:35.674Z,85.70
2023-01-30T21:14:00.831Z,85.50
2023-01-30T21:16:26.743Z,85.70
2023-01-30T21:18:52.457Z,86.20
2023-01-30T21:21:20.070Z,85.70
2023-01-30T21:23:43.624Z,85.90
2023-01-30T21:26:10.180Z,86.00
2023-01-30T21:28:34.071Z,86.20
2023-01-30T21:30:57.542Z,86.20
2023-01-30T21:33:20.873Z,86.40
2023-01-30T21:35:44.282Z,86.60
2023-01-30T21:38:28.802Z,86.50
2023-01-30T21:41:09.581Z,86.70
2023-01-30T21:43:32.965Z,86.70
2023-01-30T21:45:59.556Z,86.80
2023-01-30T21:48:22.965Z,87.30
2023-01-30T21:50:47.299Z,87.20
2023-01-30T21:53:13.085Z,86.90
2023-01-30T21:55:36.608Z,87.00
2023-01-30T21:57:59.940Z,86.90
2023-01-30T22:00:23.173Z,87.00
2023-01-30T22:02:50.307Z,87.30
2023-01-30T22:05:13.599Z,87.30
2023-01-30T22:07:37.641Z,87.30
2023-01-30T22:10:02.487Z,87.50
2023-01-30T22:12:27.178Z,87.50
2023-01-30T22:14:50.480Z,87.50
2023-01-30T22:17:13.743Z,87.50
2023-01-30T22:19:37.565Z,87.30
2023-01-30T22:22:00.798Z,87.40
2023-01-30T22:24:24.263Z,87.30
2023-01-30T22:26:49.327Z,87.50
2023-01-30T22:29:15.723Z,87.50
2023-01-30T22:31:40.546Z,87.50
2023-01-30T22:34:05.168Z,87.60
2023-01-30T22:36:31.182Z,87.60
2023-01-30T22:38:54.529Z,88.00
2023-01-30T22:41:20.298Z,88.00
2023-01-30T22:43:47.602Z,87.90
2023-01-30T22:46:12.253Z,88.00
2023-01-30T22:48:38.361Z,88.00
2023-01-30T22:51:03.980Z,87.80
2023-01-30T22:53:27.248Z,87.90
2023-01-30T22:55:50.479Z,87.70
2023-01-30T22:58:14.403Z,88.20
2023-01-30T23:00:39.612Z,88.20
2023-01-30T23:03:02.983Z,87.60
2023-01-30T23:05:26.201Z,87.90
2023-01-30T23:07:49.434Z,87.50
2023-01-30T23:10:12.865Z,87.40
2023-01-30T23:12:53.838Z,87.50
2023-01-30T23:15:17.538Z,87.60
2023-01-30T23:18:00.386Z,87.40
2023-01-30T23:20:23.686Z,87.10
2023-01-30T23:22:51.890Z,87.10
2023-01-30T23:25:15.163Z,87.10
2023-01-30T23:27:39.081Z,87.00
2023-01-30T23:30:02.366Z,86.80
2023-01-30T23:32:25.930Z,87.00
2023-01-30T23:34:50.636Z,86.60
2023-01-30T23:37:13.907Z,86.50
2023-01-30T23:39:37.681Z,86.60
2023-01-30T23:42:01.033Z,86.40
2023-01-30T23:44:24.466Z,86.20
2023-01-30T23:46:47.949Z,86.00
2023-01-30T23:49:13.565Z,85.90
2023-01-30T23:51:40.641Z,86.20
2023-01-30T23:54:05.056Z,86.00
2023-01-30T23:56:30.909Z,86.20
2023-01-30T23:58:54.471Z,86.10
